MSC Florentina — HPFH — position and weather

sailwx.info

Track history (hours):
 
Tides and Currents Weather Stations Pressure Air Temp Water Temp Dewpoint Dewpoint Depression Visibility Wind Speed Wind Dir Waves Ship Positions

MSC Florentina

Last reported at 2015-Jan-28 10:28 UTC. Time now 2015-Jan-28 12:11 UTC.
Position N 40°50' E 014°17'.

Length 300 m; draft 8 m.

Type: Cargo ship. MMSI: 352870000.

Date/timePositionNaut miles runAvg speedWind from/ knotsBaromVisibWave heightAir tempDewpointWater temp
2015-Jan-28 10:28N 40°50' E 014°17'0 0.0
2015-Jan-28 09:04N 40°50' E 014°17'0 0.0
2015-Jan-28 08:10N 40°50' E 014°17'0 0.0
2015-Jan-28 06:10N 40°50' E 014°17'0 0.0
2015-Jan-28 04:11N 40°50' E 014°17'0 0.0
2015-Jan-28 03:28N 40°50' E 014°17'0 0.0
2015-Jan-28 02:16N 40°50' E 014°17'0 0.0
2015-Jan-28 01:28N 40°50' E 014°17'0 0.0
2015-Jan-28 00:04N 40°50' E 014°17'0 0.0
2015-Jan-27 23:22N 40°50' E 014°17'0 0.0
2015-Jan-27 22:28N 40°50' E 014°17'0 0.0
2015-Jan-27 21:22N 40°50' E 014°17'0 0.0
2015-Jan-27 20:04N 40°50' E 014°17'0 0.0
2015-Jan-27 19:16N 40°50' E 014°17'0 0.0
2015-Jan-27 18:16N 40°50' E 014°17'0 0.0
2015-Jan-27 07:28N 40°50' E 014°17'0 0.0
2015-Jan-27 04:13N 40°50' E 014°17'0 0.0
2015-Jan-27 03:13N 40°50' E 014°17'0 0.0
2015-Jan-27 02:31N 40°50' E 014°17'0 0.0
2015-Jan-26 22:04N 40°50' E 014°17'0 0.0
2015-Jan-26 20:28N 40°50' E 014°17'0 0.0
2015-Jan-26 19:31N 40°50' E 014°17'0 0.0
2015-Jan-26 18:25N 40°50' E 014°17'0 0.0
2015-Jan-26 17:13N 40°50' E 014°17'0 0.0
2015-Jan-26 14:22N 40°50' E 014°17'  
2015-Jan-24 09:31N 40°50' E 014°17'0 0.0
2015-Jan-24 03:13N 40°50' E 014°17'0 0.0
2015-Jan-24 02:31N 40°50' E 014°17'0 0.0
2015-Jan-22 08:27N 40°50' E 014°17'0 0.0
2015-Jan-22 07:18N 40°50' E 014°17'0 0.0
2015-Jan-22 06:34N 40°50' E 014°17'0 0.0
2015-Jan-22 05:33N 40°50' E 014°17'0 0.0
2015-Jan-22 04:31N 40°50' E 014°17'0 0.0
2015-Jan-22 03:33N 40°50' E 014°17'0 0.0
2015-Jan-22 01:30N 40°50' E 014°17'0 0.0
2015-Jan-22 00:33N 40°50' E 014°17'0 0.0
2015-Jan-21 23:33N 40°50' E 014°17'0 0.0
2015-Jan-21 22:48N 40°50' E 014°17'0 0.0
2015-Jan-21 22:43N 40°50' E 014°17'0 0.0
2015-Jan-21 22:34N 40°50' E 014°17'0 0.0
2015-Jan-21 21:33N 40°50' E 014°17'0 0.0
2015-Jan-21 20:26N 40°50' E 014°17'1 1.0
2015-Jan-21 19:33N 40°50' E 014°17'3 2.6
2015-Jan-21 18:33N 40°47' E 014°15'1 1.0
2015-Jan-21 17:25N 40°46' E 014°15'1 0.7
2015-Jan-21 16:25N 40°46' E 014°16'1 0.8
2015-Jan-21 15:33N 40°45' E 014°15'0 0.3
2015-Jan-21 14:33N 40°45' E 014°14'3 3.4
2015-Jan-21 13:33N 40°49' E 014°16'0 0.1
2015-Jan-21 08:32N 40°49' E 014°15'0 0.0
2015-Jan-21 07:32N 40°49' E 014°15'0 0.0
2015-Jan-21 06:28N 40°49' E 014°15'0 0.0
2015-Jan-21 04:33N 40°49' E 014°15'0 0.0
2015-Jan-21 03:33N 40°49' E 014°15'2 1.8
2015-Jan-21 02:26N 40°50' E 014°17'0 0.0
2015-Jan-21 00:20N 40°50' E 014°17'0 0.0
2015-Jan-19 22:31N 40°50' E 014°17'5 5.6
2015-Jan-19 21:33N 40°45' E 014°16'1514.5
2015-Jan-19 20:33N 40°31' E 014°11'1615.4
2015-Jan-19 19:32N 40°17' E 014°21'  
Track history (hours):
 
Tides and Currents Weather Stations Pressure Air Temp Water Temp Dewpoint Dewpoint Depression Visibility Wind Speed Wind Dir Waves Ship Positions

MSC Florentina

Last reported at 2015-Jan-28 10:28 UTC. Time now 2015-Jan-28 12:11 UTC.
Position N 40°50' E 014°17'.

Length 300 m; draft 8 m.

Type: Cargo ship. MMSI: 352870000.

Date/timePositionNaut miles runAvg speedWind from/ knotsBaromVisibWave heightAir tempDewpointWater temp
2015-Jan-28 10:28N 40°50' E 014°17'0 0.0
2015-Jan-28 09:04N 40°50' E 014°17'0 0.0
2015-Jan-28 08:10N 40°50' E 014°17'0 0.0
2015-Jan-28 06:10N 40°50' E 014°17'0 0.0
2015-Jan-28 04:11N 40°50' E 014°17'0 0.0
2015-Jan-28 03:28N 40°50' E 014°17'0 0.0
2015-Jan-28 02:16N 40°50' E 014°17'0 0.0
2015-Jan-28 01:28N 40°50' E 014°17'0 0.0
2015-Jan-28 00:04N 40°50' E 014°17'0 0.0
2015-Jan-27 23:22N 40°50' E 014°17'0 0.0
2015-Jan-27 22:28N 40°50' E 014°17'0 0.0
2015-Jan-27 21:22N 40°50' E 014°17'0 0.0
2015-Jan-27 20:04N 40°50' E 014°17'0 0.0
2015-Jan-27 19:16N 40°50' E 014°17'0 0.0
2015-Jan-27 18:16N 40°50' E 014°17'0 0.0
2015-Jan-27 07:28N 40°50' E 014°17'0 0.0
2015-Jan-27 04:13N 40°50' E 014°17'0 0.0
2015-Jan-27 03:13N 40°50' E 014°17'0 0.0
2015-Jan-27 02:31N 40°50' E 014°17'0 0.0
2015-Jan-26 22:04N 40°50' E 014°17'0 0.0
2015-Jan-26 20:28N 40°50' E 014°17'0 0.0
2015-Jan-26 19:31N 40°50' E 014°17'0 0.0
2015-Jan-26 18:25N 40°50' E 014°17'0 0.0
2015-Jan-26 17:13N 40°50' E 014°17'0 0.0
2015-Jan-26 14:22N 40°50' E 014°17'  
2015-Jan-24 09:31N 40°50' E 014°17'0 0.0
2015-Jan-24 03:13N 40°50' E 014°17'0 0.0
2015-Jan-24 02:31N 40°50' E 014°17'0 0.0
2015-Jan-22 08:27N 40°50' E 014°17'0 0.0
2015-Jan-22 07:18N 40°50' E 014°17'0 0.0
2015-Jan-22 06:34N 40°50' E 014°17'0 0.0
2015-Jan-22 05:33N 40°50' E 014°17'0 0.0
2015-Jan-22 04:31N 40°50' E 014°17'0 0.0
2015-Jan-22 03:33N 40°50' E 014°17'0 0.0
2015-Jan-22 01:30N 40°50' E 014°17'0 0.0
2015-Jan-22 00:33N 40°50' E 014°17'0 0.0
2015-Jan-21 23:33N 40°50' E 014°17'0 0.0
2015-Jan-21 22:48N 40°50' E 014°17'0 0.0
2015-Jan-21 22:43N 40°50' E 014°17'0 0.0
2015-Jan-21 22:34N 40°50' E 014°17'0 0.0
2015-Jan-21 21:33N 40°50' E 014°17'0 0.0
2015-Jan-21 20:26N 40°50' E 014°17'1 1.0
2015-Jan-21 19:33N 40°50' E 014°17'3 2.6
2015-Jan-21 18:33N 40°47' E 014°15'1 1.0
2015-Jan-21 17:25N 40°46' E 014°15'1 0.7
2015-Jan-21 16:25N 40°46' E 014°16'1 0.8
2015-Jan-21 15:33N 40°45' E 014°15'0 0.3
2015-Jan-21 14:33N 40°45' E 014°14'3 3.4
2015-Jan-21 13:33N 40°49' E 014°16'0 0.1
2015-Jan-21 08:32N 40°49' E 014°15'0 0.0
2015-Jan-21 07:32N 40°49' E 014°15'0 0.0
2015-Jan-21 06:28N 40°49' E 014°15'0 0.0
2015-Jan-21 04:33N 40°49' E 014°15'0 0.0
2015-Jan-21 03:33N 40°49' E 014°15'2 1.8
2015-Jan-21 02:26N 40°50' E 014°17'0 0.0
2015-Jan-21 00:20N 40°50' E 014°17'0 0.0
2015-Jan-19 22:31N 40°50' E 014°17'5 5.6
2015-Jan-19 21:33N 40°45' E 014°16'1514.5
2015-Jan-19 20:33N 40°31' E 014°11'1615.4
2015-Jan-19 19:32N 40°17' E 014°21'  

Dump ship's entire track history